Terminal Aerodrome Forecast
Issued by NWS

Home | Current Version | Previous Version | Text Only | Print | Product List | Glossary On
Versions: 1 2 3 4 5 6 7 8 9 10 11 12 13 14 15
000
FTUS45 KFGZ 080144 AAA
TAFSEZ
TAF AMD
KSEZ 080144Z 0802/0824 VRB06KT P6SM VCSH SCT120
      TEMPO 0802/0804 VRB15G25KT 6SM -TSRA BKN100CB
     FM080400 04008KT P6SM FEW140=

USA.gov is the U.S. government's official web portal to all federal, state and local government web resources and services.